Time;durP1;ratioP1;P1;durP2;ratioP2;P2;SDS_P1;SDS_P2;PMS_P1;PMS_P2;Temp;Humidity;BMP_temperature;BMP_pressure;BME280_temperature;BME280_humidity;BME280_pressure;Samples;Min_cycle;Max_cycle;Signal;HPM_P1;HPM_P2
2023/04/27 00:01:14;;;;;;;;;;;;;;;26.10;39.48;94232.75;5075016;28;8566;-64
2023/04/27 00:03:44;;;;;;;;;;;;;;;26.09;40.00;94220.25;5071505;28;7033;-63
2023/04/27 00:06:10;;;;;;;;;;;;;;;26.09;40.05;94216.75;5074218;28;7027;-64
2023/04/27 00:08:36;;;;;;;;;;;;;;;26.08;39.83;94216.00;5073149;28;9161;-63
2023/04/27 00:11:02;;;;;;;;;;;;;;;26.08;39.71;94207.72;5039999;28;9011;-64
2023/04/27 00:13:28;;;;;;;;;;;;;;;26.09;40.17;94209.22;5070588;28;7234;-64
2023/04/27 00:15:59;;;;;;;;;;;;;;;26.08;40.49;94212.47;5073957;28;7134;-64
2023/04/27 00:18:29;;;;;;;;;;;;;;;26.09;39.65;94209.22;5056337;28;9034;-63
2023/04/27 00:20:57;;;;;;;;;;;;;;;26.10;39.56;94207.94;5055945;28;7194;-64
2023/04/27 00:23:25;;;;;;;;;;;;;;;26.10;39.57;94202.44;5072110;28;7202;-63
2023/04/27 00:25:51;;;;;;;;;;;;;;;26.10;40.23;94207.94;5055846;28;9238;-64
2023/04/27 00:28:22;;;;;;;;;;;;;;;26.11;40.06;94211.47;5073728;28;7644;-64
2023/04/27 00:30:53;;;;;;;;;;;;;;;26.10;39.96;94201.69;5072680;28;7087;-64
2023/04/27 00:33:21;;;;;;;;;;;;;;;26.08;39.90;94196.69;5063557;28;7123;-63
2023/04/27 00:35:49;;;;;;;;;;;;;;;26.10;39.84;94205.19;5049315;28;6975;-63
2023/04/27 00:38:15;;;;;;;;;;;;;;;26.11;39.63;94200.44;5052493;28;8993;-63
2023/04/27 00:40:43;;;;;;;;;;;;;;;26.10;40.17;94207.19;5035610;28;7289;-64
2023/04/27 00:43:12;;;;;;;;;;;;;;;26.09;40.51;94203.72;5035065;28;7580;-64
2023/04/27 00:45:42;;;;;;;;;;;;;;;26.09;40.46;94202.97;5053554;28;7505;-63
2023/04/27 00:48:10;;;;;;;;;;;;;;;26.10;40.20;94198.94;5036316;28;8976;-64
2023/04/27 00:50:37;;;;;;;;;;;;;;;26.09;40.55;94198.22;5052994;28;6990;-63
2023/04/27 00:53:05;;;;;;;;;;;;;;;26.09;40.28;94203.72;5053119;28;9387;-64
2023/04/27 00:55:31;;;;;;;;;;;;;;;26.08;39.84;94198.69;5054153;28;7024;-64
2023/04/27 00:57:57;;;;;;;;;;;;;;;26.08;40.47;94199.47;5071800;28;7340;-63
2023/04/27 01:00:23;;;;;;;;;;;;;;;26.08;40.85;94201.44;5055067;28;9650;-63
2023/04/27 01:02:51;;;;;;;;;;;;;;;26.05;40.35;94197.72;5071941;28;9389;-64
2023/04/27 01:05:21;;;;;;;;;;;;;;;26.07;39.79;94200.72;5039507;28;7275;-64
2023/04/27 01:07:50;;;;;;;;;;;;;;;26.04;40.13;94201.72;5051937;28;8674;-64
2023/04/27 01:10:16;;;;;;;;;;;;;;;26.07;39.67;94205.47;5052496;28;7097;-63
2023/04/27 01:12:42;;;;;;;;;;;;;;;26.09;39.66;94202.97;5051912;28;7082;-64
2023/04/27 01:15:11;;;;;;;;;;;;;;;26.06;40.01;94192.94;5034324;28;7284;-64
2023/04/27 01:17:39;;;;;;;;;;;;;;;26.07;40.09;94214.50;5052691;28;9098;-64
2023/04/27 01:20:10;;;;;;;;;;;;;;;26.06;39.88;94206.72;5035409;28;7160;-64
2023/04/27 01:22:38;;;;;;;;;;;;;;;26.07;39.93;94203.47;5035510;28;8695;-64
2023/04/27 01:25:05;;;;;;;;;;;;;;;26.07;39.79;94211.72;5040564;28;9056;-64
2023/04/27 01:27:39;;;;;;;;;;;;;;;26.07;39.69;94208.97;5055032;28;7000;-63
2023/04/27 01:30:15;;;;;;;;;;;;;;;26.06;40.16;94209.47;5055858;28;9054;-64
2023/04/27 01:32:41;;;;;;;;;;;;;;;26.04;40.19;94207.25;5072740;28;7457;-63
2023/04/27 01:35:08;;;;;;;;;;;;;;;26.06;40.07;94215.75;5049699;28;8662;-63
2023/04/27 01:37:39;;;;;;;;;;;;;;;26.06;40.57;94218.50;5035226;28;7244;-63
2023/04/27 01:40:06;;;;;;;;;;;;;;;26.04;40.58;94203.75;5035339;28;8967;-63
2023/04/27 01:42:32;;;;;;;;;;;;;;;26.09;39.88;94212.00;5035308;28;7160;-63
2023/04/27 01:44:59;;;;;;;;;;;;;;;26.07;40.41;94210.97;5051521;28;7021;-63
2023/04/27 01:47:27;;;;;;;;;;;;;;;26.08;40.13;94212.47;5057527;28;7121;-63
2023/04/27 01:49:53;;;;;;;;;;;;;;;26.06;40.07;94215.00;5071461;28;7067;-63
2023/04/27 01:52:21;;;;;;;;;;;;;;;26.05;40.31;94219.78;5071091;28;7086;-64
2023/04/27 01:54:50;;;;;;;;;;;;;;;26.05;39.76;94222.53;5072322;28;9028;-63
2023/04/27 01:57:18;;;;;;;;;;;;;;;26.06;39.84;94220.50;5066445;28;9096;-63
2023/04/27 01:59:48;;;;;;;;;;;;;;;26.05;40.09;94214.25;5035052;28;9017;-63
2023/04/27 02:02:14;;;;;;;;;;;;;;;26.02;40.69;94220.81;5035386;28;9056;-63
2023/04/27 02:04:41;;;;;;;;;;;;;;;26.04;40.16;94228.53;5052069;28;7143;-63
2023/04/27 02:07:14;;;;;;;;;;;;;;;26.05;40.62;94239.06;5065110;28;9068;-64
2023/04/27 02:09:40;;;;;;;;;;;;;;;26.04;39.77;94237.56;5055220;28;8225;-63
2023/04/27 02:12:10;;;;;;;;;;;;;;;26.03;39.97;94238.09;5055179;28;8860;-63
2023/04/27 02:14:40;;;;;;;;;;;;;;;25.99;39.84;94230.09;5071731;28;9080;-63
2023/04/27 02:17:06;;;;;;;;;;;;;;;26.04;40.02;94243.06;5052390;28;7159;-63
2023/04/27 02:19:41;;;;;;;;;;;;;;;26.05;40.47;94246.59;5048967;28;7295;-63
2023/04/27 02:22:16;;;;;;;;;;;;;;;26.03;40.02;94238.09;5052440;28;9120;-63
2023/04/27 02:24:45;;;;;;;;;;;;;;;26.02;40.46;94240.09;5051079;28;9049;-63
2023/04/27 02:27:13;;;;;;;;;;;;;;;26.00;40.44;94237.09;5034422;28;9049;-63
2023/04/27 02:29:39;;;;;;;;;;;;;;;26.05;40.00;94238.31;5050970;28;7120;-63
2023/04/27 02:32:10;;;;;;;;;;;;;;;26.03;39.81;94243.59;5051068;28;6970;-63
2023/04/27 02:34:37;;;;;;;;;;;;;;;26.03;39.88;94238.09;5050504;28;7116;-63
2023/04/27 02:37:05;;;;;;;;;;;;;;;26.00;40.05;94228.84;5034065;28;7004;-63
2023/04/27 02:39:33;;;;;;;;;;;;;;;26.00;40.17;94220.56;5067610;28;7375;-63
2023/04/27 02:42:01;;;;;;;;;;;;;;;26.01;40.10;94224.81;5054966;28;7308;-63
2023/04/27 02:44:28;;;;;;;;;;;;;;;26.01;40.08;94224.81;5071533;28;7275;-63
2023/04/27 02:47:04;;;;;;;;;;;;;;;26.03;39.88;94216.03;5055566;28;9378;-63
2023/04/27 02:49:42;;;;;;;;;;;;;;;26.02;40.38;94220.03;5049285;28;8830;-63
2023/04/27 02:52:10;;;;;;;;;;;;;;;26.01;40.73;94224.81;5035645;28;8815;-63
2023/04/27 02:54:38;;;;;;;;;;;;;;;26.01;40.73;94224.81;5053320;28;7475;-63
2023/04/27 02:57:15;;;;;;;;;;;;;;;26.02;39.87;94229.06;5035150;28;7287;-63
2023/04/27 02:59:45;;;;;;;;;;;;;;;26.01;40.68;94229.59;5054855;28;9492;-63
2023/04/27 03:02:20;;;;;;;;;;;;;;;26.00;40.21;94234.34;5053374;28;9081;-63
2023/04/27 03:04:52;;;;;;;;;;;;;;;26.00;40.58;94228.84;5052097;28;8731;-63
2023/04/27 03:07:20;;;;;;;;;;;;;;;26.01;40.49;94232.34;5035640;28;9050;-63
2023/04/27 03:09:47;;;;;;;;;;;;;;;26.01;40.41;94230.31;5036646;28;8781;-63
2023/04/27 03:12:15;;;;;;;;;;;;;;;26.01;40.61;94230.31;5053402;28;7263;-63
2023/04/27 03:14:42;;;;;;;;;;;;;;;26.01;39.88;94233.06;5038723;28;9013;-63
2023/04/27 03:17:19;;;;;;;;;;;;;;;26.01;40.57;94241.34;5055776;28;7023;-63
2023/04/27 03:19:47;;;;;;;;;;;;;;;26.00;40.04;94226.09;5058025;28;8192;-63
2023/04/27 03:22:16;;;;;;;;;;;;;;;25.99;40.07;94216.31;5058952;28;7139;-63
2023/04/27 03:24:48;;;;;;;;;;;;;;;26.00;39.52;94217.81;5075719;28;7120;-63
2023/04/27 03:27:16;;;;;;;;;;;;;;;25.99;40.27;94224.56;5075601;28;7361;-63
2023/04/27 03:29:44;;;;;;;;;;;;;;;25.99;40.36;94227.34;5064727;28;7434;-63
2023/04/27 03:32:11;;;;;;;;;;;;;;;26.00;40.11;94231.59;5055179;28;9213;-63
2023/04/27 03:34:48;;;;;;;;;;;;;;;25.99;40.66;94226.59;5038880;28;7026;-63
2023/04/27 03:37:20;;;;;;;;;;;;;;;25.99;39.80;94230.09;5039134;28;9206;-63
2023/04/27 03:39:46;;;;;;;;;;;;;;;25.99;40.66;94226.59;5051047;28;7197;-63
2023/04/27 03:42:53;;;;;;;;;;;;;;;25.99;40.61;94221.81;5055588;28;7270;-63
2023/04/27 03:45:30;;;;;;;;;;;;;;;25.96;39.96;94228.38;4975684;28;9078;-63
2023/04/27 03:47:55;;;;;;;;;;;;;;;25.95;39.94;94215.84;4975546;28;7168;-63
2023/04/27 03:50:21;;;;;;;;;;;;;;;25.95;40.02;94215.84;4959060;28;9167;-63
2023/04/27 03:52:57;;;;;;;;;;;;;;;25.96;40.47;94227.63;4991351;28;7057;-63
2023/04/27 03:55:44;;;;;;;;;;;;;;;25.95;40.79;94224.13;4968872;28;7260;-63
2023/04/27 03:58:10;;;;;;;;;;;;;;;25.97;40.24;94231.88;4978692;28;6962;-63
2023/04/27 04:00:46;;;;;;;;;;;;;;;25.96;40.64;94228.38;4978409;28;7205;-63
2023/04/27 04:03:23;;;;;;;;;;;;;;;25.97;40.89;94231.88;4994251;28;7222;-63
2023/04/27 04:05:50;;;;;;;;;;;;;;;25.95;39.91;94239.91;4994021;28;7155;-63
2023/04/27 04:08:18;;;;;;;;;;;;;;;25.95;40.42;94232.38;4978507;28;7345;-63
2023/04/27 04:11:16;;;;;;;;;;;;;;;25.95;39.99;94235.16;4977900;28;7031;-63
2023/04/27 04:14:12;;;;;;;;;;;;;;;25.94;40.87;94230.91;4937008;29;9047;-63
2023/04/27 04:16:39;;;;;;;;;;;;;;;25.95;40.32;94234.41;4892390;29;7459;-63
2023/04/27 04:19:59;;;;;;;;;;;;;;;25.95;40.64;94232.38;4917365;29;7290;-63
2023/04/27 04:22:38;;;;;;;;;;;;;;;25.92;40.02;94236.19;4933429;29;8633;-63
2023/04/27 04:25:04;;;;;;;;;;;;;;;25.95;40.31;94237.16;4916456;29;8829;-63
2023/04/27 04:27:34;;;;;;;;;;;;;;;25.95;40.65;94243.41;4901630;29;7303;-63
2023/04/27 04:30:08;;;;;;;;;;;;;;;25.96;40.70;94242.16;4916404;29;7189;-64
2023/04/27 04:32:36;;;;;;;;;;;;;;;25.93;40.81;94240.44;4901474;29;7074;-63
2023/04/27 04:35:34;;;;;;;;;;;;;;;25.94;39.89;94236.44;4901646;29;9113;-63
2023/04/27 04:38:31;;;;;;;;;;;;;;;25.94;40.03;94235.69;4898789;29;7032;-64
2023/04/27 04:40:58;;;;;;;;;;;;;;;25.93;41.03;94232.16;4918856;29;7134;-63
2023/04/27 04:43:25;;;;;;;;;;;;;;;25.94;40.42;94246.69;4920623;29;8719;-63
2023/04/27 04:46:08;;;;;;;;;;;;;;;25.94;40.95;94236.44;4920497;29;8742;-63
2023/04/27 04:48:34;;;;;;;;;;;;;;;25.94;40.08;94241.94;4919801;29;7488;-63
2023/04/27 04:51:00;;;;;;;;;;;;;;;25.94;40.66;94236.44;4932859;28;9070;-63
2023/04/27 04:53:26;;;;;;;;;;;;;;;25.94;40.59;94241.94;4982906;28;9358;-63
2023/04/27 04:55:52;;;;;;;;;;;;;;;25.93;40.78;94237.69;4995514;28;9611;-63
2023/04/27 04:58:22;;;;;;;;;;;;;;;25.92;40.76;94232.69;5020990;28;9086;-63
2023/04/27 05:00:50;;;;;;;;;;;;;;;25.93;40.32;94234.91;5013782;28;7056;-63
2023/04/27 05:03:18;;;;;;;;;;;;;;;25.95;40.97;94232.38;5030989;28;7330;-63
2023/04/27 05:05:44;;;;;;;;;;;;;;;25.95;40.63;94231.63;5030983;28;9329;-63
2023/04/27 05:08:10;;;;;;;;;;;;;;;25.93;40.83;94234.91;5030792;28;7093;-63
2023/04/27 05:10:38;;;;;;;;;;;;;;;25.91;40.77;94229.19;5030145;28;7031;-63
2023/04/27 05:13:04;;;;;;;;;;;;;;;25.93;40.68;94234.16;5014391;28;7219;-63
2023/04/27 05:15:30;;;;;;;;;;;;;;;25.94;40.41;94228.16;5050426;28;8621;-63
2023/04/27 05:17:58;;;;;;;;;;;;;;;25.94;40.75;94228.16;5053186;28;7037;-63
2023/04/27 05:20:34;;;;;;;;;;;;;;;25.94;40.72;94228.16;5054628;28;7205;-63
2023/04/27 05:23:01;;;;;;;;;;;;;;;25.95;40.39;94232.38;5060284;28;7156;-63
2023/04/27 05:25:31;;;;;;;;;;;;;;;25.94;40.79;94230.16;5051681;28;7289;-63
2023/04/27 05:27:59;;;;;;;;;;;;;;;25.93;40.11;94234.91;5052677;28;6975;-63
2023/04/27 05:30:37;;;;;;;;;;;;;;;25.93;40.57;94234.91;5053233;28;9370;-63
2023/04/27 05:33:07;;;;;;;;;;;;;;;25.94;40.29;94236.44;5054806;28;7038;-63
2023/04/27 05:35:43;;;;;;;;;;;;;;;25.93;40.84;94234.91;5052291;28;9520;-63
2023/04/27 05:38:09;;;;;;;;;;;;;;;25.93;40.47;94236.94;5036927;28;8911;-63
2023/04/27 05:40:41;;;;;;;;;;;;;;;25.94;40.09;94243.94;5053244;28;8988;-64
2023/04/27 05:43:07;;;;;;;;;;;;;;;25.91;40.88;94242.97;5036378;28;7297;-63
2023/04/27 05:45:42;;;;;;;;;;;;;;;25.93;40.03;94243.19;5063349;28;7026;-63
2023/04/27 05:48:27;;;;;;;;;;;;;;;25.94;41.01;94239.19;5053305;28;7194;-63
2023/04/27 05:51:10;;;;;;;;;;;;;;;25.94;40.71;94241.94;5054302;28;7264;-63
2023/04/27 05:53:43;;;;;;;;;;;;;;;25.91;40.45;94237.44;5066781;28;7233;-64
2023/04/27 05:56:24;;;;;;;;;;;;;;;25.93;40.58;94243.19;5036808;28;7055;-63
2023/04/27 05:58:59;;;;;;;;;;;;;;;25.93;40.55;94250.69;5036382;28;7218;-63
2023/04/27 06:01:35;;;;;;;;;;;;;;;25.91;41.12;94256.75;5069629;28;8682;-63
2023/04/27 06:04:17;;;;;;;;;;;;;;;25.95;40.57;94264.72;5052533;28;7103;-63
2023/04/27 06:06:52;;;;;;;;;;;;;;;25.95;40.78;94259.94;5052787;28;7356;-63
2023/04/27 06:09:30;;;;;;;;;;;;;;;25.94;40.25;94261.22;5036196;28;7285;-63
2023/04/27 06:12:14;;;;;;;;;;;;;;;25.95;40.45;94262.72;5052999;28;7514;-63
2023/04/27 06:15:06;;;;;;;;;;;;;;;25.93;40.28;94270.75;5041758;28;7030;-63
2023/04/27 06:17:46;;;;;;;;;;;;;;;25.95;40.86;94270.97;5056476;28;8933;-63
2023/04/27 06:20:23;;;;;;;;;;;;;;;25.94;41.08;94261.22;5056372;28;7331;-63
2023/04/27 06:23:00;;;;;;;;;;;;;;;25.95;40.23;94264.72;5073873;28;9107;-63
2023/04/27 06:25:30;;;;;;;;;;;;;;;25.94;40.34;94275.00;5060068;28;7096;-64
2023/04/27 06:28:19;;;;;;;;;;;;;;;25.95;40.54;94267.47;5036258;28;8943;-63
2023/04/27 06:30:56;;;;;;;;;;;;;;;25.93;40.57;94273.50;5052330;28;7107;-63
2023/04/27 06:33:39;;;;;;;;;;;;;;;25.95;40.76;94270.97;5053543;28;7210;-63
2023/04/27 06:36:05;;;;;;;;;;;;;;;25.96;41.00;94271.72;5054362;28;8753;-63
2023/04/27 06:38:35;;;;;;;;;;;;;;;25.94;40.75;94263.97;5036197;28;7230;-63
2023/04/27 06:41:12;;;;;;;;;;;;;;;25.96;40.94;94271.72;5036012;28;6979;-62
2023/04/27 06:43:45;;;;;;;;;;;;;;;25.94;40.18;94280.53;5052203;28;7429;-64
2023/04/27 06:46:23;;;;;;;;;;;;;;;25.95;40.81;94275.72;5044309;28;7025;-63
2023/04/27 06:49:00;;;;;;;;;;;;;;;25.94;40.74;94277.75;5059686;28;9278;-63
2023/04/27 06:51:30;;;;;;;;;;;;;;;25.97;40.27;94284.22;5076352;28;7288;-63
2023/04/27 06:53:59;;;;;;;;;;;;;;;25.97;40.94;94284.22;5071263;28;7039;-63
2023/04/27 06:57:12;;;;;;;;;;;;;;;25.97;40.16;94284.22;5051576;28;7276;-63
2023/04/27 06:59:55;;;;;;;;;;;;;;;25.97;40.36;94290.50;4976116;28;7259;-63
2023/04/27 07:02:21;;;;;;;;;;;;;;;25.94;40.38;94291.53;4960095;28;9478;-63
2023/04/27 07:05:17;;;;;;;;;;;;;;;25.96;40.64;94289.00;4976383;28;9051;-63
2023/04/27 07:07:51;;;;;;;;;;;;;;;25.93;40.15;94301.06;4971831;28;9046;-63
2023/04/27 07:10:19;;;;;;;;;;;;;;;25.96;40.92;94299.28;4959590;28;7031;-63
2023/04/27 07:12:54;;;;;;;;;;;;;;;25.94;40.77;94307.31;4976301;28;7259;-63
2023/04/27 07:15:40;;;;;;;;;;;;;;;25.94;40.86;94308.06;4960132;28;7497;-63
2023/04/27 07:18:19;;;;;;;;;;;;;;;25.92;40.38;94310.59;4971756;28;7423;-63
2023/04/27 07:21:01;;;;;;;;;;;;;;;25.95;40.76;94309.56;4959785;28;7268;-63
2023/04/27 07:23:43;;;;;;;;;;;;;;;25.92;40.16;94315.34;4963469;28;7483;-63
2023/04/27 07:26:10;;;;;;;;;;;;;;;25.94;40.65;94319.09;4979065;28;9320;-63
2023/04/27 07:28:51;;;;;;;;;;;;;;;25.94;40.48;94319.09;4963126;28;8762;-63
2023/04/27 07:31:18;;;;;;;;;;;;;;;25.95;39.98;94317.06;4979419;28;8848;-64
2023/04/27 07:33:59;;;;;;;;;;;;;;;25.94;39.89;94313.59;4990786;28;6991;-63
2023/04/27 07:36:26;;;;;;;;;;;;;;;25.94;40.78;94318.34;5014614;28;7052;-63
2023/04/27 07:38:56;;;;;;;;;;;;;;;25.92;39.96;94309.84;5047992;28;7054;-63
2023/04/27 07:41:32;;;;;;;;;;;;;;;25.95;40.14;94306.78;5047674;28;9342;-63
2023/04/27 07:44:01;;;;;;;;;;;;;;;25.94;40.81;94313.59;5054568;28;9202;-63
2023/04/27 07:46:29;;;;;;;;;;;;;;;25.94;40.32;94305.31;5053386;28;7253;-63
2023/04/27 07:48:58;;;;;;;;;;;;;;;25.95;40.64;94304.03;5046676;28;8969;-63
2023/04/27 07:51:24;;;;;;;;;;;;;;;25.97;40.32;94303.53;5055085;28;7048;-63
2023/04/27 07:54:02;;;;;;;;;;;;;;;25.94;39.83;94299.06;5063236;28;7269;-63
2023/04/27 07:56:36;;;;;;;;;;;;;;;25.97;39.82;94304.28;5055421;28;7014;-63
2023/04/27 07:59:47;;;;;;;;;;;;;;;25.97;40.06;94295.25;5037355;28;7295;-63
2023/04/27 08:02:13;;;;;;;;;;;;;;;25.97;39.82;94301.50;5014081;28;9124;-63
2023/04/27 08:04:43;;;;;;;;;;;;;;;25.96;39.86;94293.78;5016943;28;7026;-63
2023/04/27 08:07:43;;;;;;;;;;;;;;;25.98;40.56;94297.50;5033944;28;9442;-63
2023/04/27 08:10:12;;;;;;;;;;;;;;;25.98;39.73;94297.50;4955798;28;8919;-63
2023/04/27 08:12:42;;;;;;;;;;;;;;;25.99;40.73;94287.97;4939877;28;7057;-63
2023/04/27 08:15:10;;;;;;;;;;;;;;;25.99;39.68;94287.97;4938895;28;7289;-63
2023/04/27 08:17:48;;;;;;;;;;;;;;;25.97;39.90;94284.97;4940178;28;7117;-63
2023/04/27 08:20:16;;;;;;;;;;;;;;;25.99;40.51;94285.22;4940053;28;9068;-63
2023/04/27 08:22:51;;;;;;;;;;;;;;;26.00;40.38;94283.97;4939798;28;8757;-63
2023/04/27 08:25:27;;;;;;;;;;;;;;;26.02;40.29;94283.44;4955236;28;9030;-63
2023/04/27 08:28:15;;;;;;;;;;;;;;;26.01;40.25;94284.72;4955457;28;6994;-63
2023/04/27 08:30:42;;;;;;;;;;;;;;;26.02;39.82;94277.91;4955473;28;7023;-63
2023/04/27 08:33:10;;;;;;;;;;;;;;;26.02;40.05;94283.44;4939305;28;7277;-63
2023/04/27 08:35:49;;;;;;;;;;;;;;;26.02;40.40;94284.19;4954815;28;8229;-63
2023/04/27 08:38:46;;;;;;;;;;;;;;;26.03;39.68;94284.94;4958771;28;9038;-63
2023/04/27 08:41:42;;;;;;;;;;;;;;;26.03;40.51;94284.94;4920353;29;9138;-63
2023/04/27 08:44:20;;;;;;;;;;;;;;;26.02;39.80;94281.44;4920337;29;9835;-63
2023/04/27 08:46:59;;;;;;;;;;;;;;;26.03;39.57;94277.41;4990283;28;8689;-63
2023/04/27 08:49:40;;;;;;;;;;;;;;;26.02;40.12;94286.19;4977697;28;7035;-63
2023/04/27 08:52:26;;;;;;;;;;;;;;;26.03;40.19;94282.91;4994212;28;9014;-63
2023/04/27 08:55:22;;;;;;;;;;;;;;;26.01;40.06;94282.69;5012025;28;9005;-63
2023/04/27 08:57:56;;;;;;;;;;;;;;;26.05;39.61;94277.66;4954972;28;7227;-63
2023/04/27 09:00:48;;;;;;;;;;;;;;;26.06;40.08;94283.91;4939131;28;7023;-62
2023/04/27 09:03:31;;;;;;;;;;;;;;;26.06;40.15;94287.41;4953659;28;7364;-64
2023/04/27 09:06:29;;;;;;;;;;;;;;;26.08;40.00;94275.84;4938631;28;9432;-63
2023/04/27 09:09:01;;;;;;;;;;;;;;;26.06;39.77;94276.38;4913252;29;7124;-63
2023/04/27 09:11:56;;;;;;;;;;;;;;;26.09;40.23;94280.16;4913447;29;8766;-63
2023/04/27 09:14:36;;;;;;;;;;;;;;;26.09;39.51;94274.63;4897527;29;8661;-63
2023/04/27 09:17:26;;;;;;;;;;;;;;;26.10;40.20;94281.63;4882093;29;9446;-63
2023/04/27 09:20:18;;;;;;;;;;;;;;;26.11;39.49;94277.63;4881978;29;7123;-63
2023/04/27 09:23:00;;;;;;;;;;;;;;;26.10;39.75;94276.09;4897098;29;7246;-63
2023/04/27 09:25:41;;;;;;;;;;;;;;;26.12;39.81;94279.13;4913365;29;7046;-64
2023/04/27 09:28:17;;;;;;;;;;;;;;;26.12;39.66;94282.59;4916787;29;7271;-63
2023/04/27 09:30:57;;;;;;;;;;;;;;;26.13;39.79;94284.09;4916417;29;8981;-64
2023/04/27 09:33:34;;;;;;;;;;;;;;;26.15;39.71;94272.56;4925181;28;8244;-63
2023/04/27 09:36:15;;;;;;;;;;;;;;;26.16;40.24;94282.34;4992668;28;7053;-64
2023/04/27 09:38:45;;;;;;;;;;;;;;;26.15;40.00;94281.56;4976521;28;7036;-64
2023/04/27 09:41:22;;;;;;;;;;;;;;;26.16;39.99;94272.03;4976861;28;7089;-63
2023/04/27 09:44:14;;;;;;;;;;;;;;;26.19;39.30;94275.78;4992402;28;7047;-63
2023/04/27 09:46:42;;;;;;;;;;;;;;;26.20;39.67;94276.53;5036999;28;7088;-63
2023/04/27 09:49:10;;;;;;;;;;;;;;;26.19;40.04;94272.28;5053214;28;7299;-63
2023/04/27 09:51:40;;;;;;;;;;;;;;;26.19;39.72;94277.81;5074467;28;8624;-63
2023/04/27 09:54:10;;;;;;;;;;;;;;;26.20;39.94;94277.28;5053207;28;9069;-63
2023/04/27 09:57:14;;;;;;;;;;;;;;;26.19;39.90;94277.81;5036501;28;9079;-63
2023/04/27 10:00:18;;;;;;;;;;;;;;;26.20;39.62;94268.25;5054525;28;9045;-63
2023/04/27 10:03:36;;;;;;;;;;;;;;;26.21;40.17;94267.00;5053104;28;7071;-63
2023/04/27 10:06:55;;;;;;;;;;;;;;;26.24;39.44;94265.94;5052578;28;7046;-64
2023/04/27 10:09:36;;;;;;;;;;;;;;;26.23;39.33;94267.94;5043888;28;9049;-64
2023/04/27 10:12:31;;;;;;;;;;;;;;;26.25;39.98;94270.22;5056031;28;7056;-63
2023/04/27 10:15:24;;;;;;;;;;;;;;;26.25;39.50;94270.22;5072414;28;7439;-63
2023/04/27 10:17:57;;;;;;;;;;;;;;;26.26;39.77;94272.44;5073393;28;7048;-63
2023/04/27 10:20:40;;;;;;;;;;;;;;;26.27;39.56;94267.69;5052948;28;9360;-63
2023/04/27 10:23:06;;;;;;;;;;;;;;;26.27;39.96;94267.69;5054223;28;7018;-64
2023/04/27 10:25:56;;;;;;;;;;;;;;;26.27;39.35;94262.91;5056990;28;6984;-63
2023/04/27 10:28:37;;;;;;;;;;;;;;;26.29;39.29;94268.66;5040501;28;8698;-63
2023/04/27 10:31:10;;;;;;;;;;;;;;;26.30;40.01;94272.13;5039358;28;7042;-63
2023/04/27 10:33:42;;;;;;;;;;;;;;;26.29;39.48;94260.38;5055234;28;7299;-63
2023/04/27 10:36:14;;;;;;;;;;;;;;;26.29;39.41;94260.38;5058091;28;7554;-63
2023/04/27 10:38:48;;;;;;;;;;;;;;;26.30;39.93;94272.13;5034804;28;7278;-63
2023/04/27 10:41:17;;;;;;;;;;;;;;;26.32;39.42;94264.84;5055019;28;9205;-64
2023/04/27 10:43:45;;;;;;;;;;;;;;;26.31;39.47;94263.38;5054638;28;7059;-63
2023/04/27 10:46:14;;;;;;;;;;;;;;;26.32;39.33;94256.56;5037549;28;8236;-63
2023/04/27 10:48:43;;;;;;;;;;;;;;;26.34;39.36;94256.06;5038539;28;8729;-63
2023/04/27 10:51:16;;;;;;;;;;;;;;;26.35;39.27;94257.56;5037914;28;9061;-63
2023/04/27 10:53:54;;;;;;;;;;;;;;;26.35;39.62;94252.78;5045012;28;7204;-63
2023/04/27 10:56:25;;;;;;;;;;;;;;;26.36;39.04;94257.03;5074215;28;7232;-63
2023/04/27 10:58:53;;;;;;;;;;;;;;;26.38;39.43;94257.25;5056915;28;9261;-63
2023/04/27 11:01:32;;;;;;;;;;;;;;;26.36;39.57;94248.75;5056978;28;7470;-63
2023/04/27 11:04:11;;;;;;;;;;;;;;;26.38;39.58;94251.75;5039665;28;7223;-63
2023/04/27 11:06:44;;;;;;;;;;;;;;;26.36;39.81;94250.78;5056651;28;7137;-63
2023/04/27 11:09:26;;;;;;;;;;;;;;;26.39;39.39;94252.50;5059592;28;9083;-63
2023/04/27 11:12:32;;;;;;;;;;;;;;;26.40;39.71;94254.00;5059323;28;8818;-63
2023/04/27 11:15:08;;;;;;;;;;;;;;;26.38;39.25;94254.50;5059178;28;7086;-63
2023/04/27 11:17:35;;;;;;;;;;;;;;;26.38;39.72;94253.78;5053580;28;8755;-63
2023/04/27 11:20:12;;;;;;;;;;;;;;;26.35;39.41;94246.53;5055838;28;8903;-63
2023/04/27 11:22:51;;;;;;;;;;;;;;;26.37;39.79;94250.25;5054004;28;8986;-63
2023/04/27 11:25:41;;;;;;;;;;;;;;;26.41;39.61;94255.47;5055187;28;8925;-63
2023/04/27 11:28:20;;;;;;;;;;;;;;;26.42;39.32;94251.47;5039458;28;9514;-63
2023/04/27 11:31:13;;;;;;;;;;;;;;;26.42;39.85;94245.94;5055686;28;7283;-64
2023/04/27 11:33:48;;;;;;;;;;;;;;;26.45;39.37;94244.88;5038095;28;9408;-64
2023/04/27 11:36:26;;;;;;;;;;;;;;;26.45;39.64;94244.88;5039098;28;7282;-63
2023/04/27 11:38:59;;;;;;;;;;;;;;;26.47;38.97;94247.91;5055910;28;7265;-63
2023/04/27 11:41:45;;;;;;;;;;;;;;;26.45;39.05;94239.38;5039257;28;7541;-63
2023/04/27 11:44:17;;;;;;;;;;;;;;;26.46;39.12;94244.38;5055316;28;7235;-64
2023/04/27 11:46:53;;;;;;;;;;;;;;;26.48;39.47;94255.66;5055151;28;7012;-63
2023/04/27 11:49:28;;;;;;;;;;;;;;;26.48;39.29;94249.38;5056952;28;9382;-63
2023/04/27 11:52:04;;;;;;;;;;;;;;;26.48;39.53;94243.84;5038757;28;9010;-63
2023/04/27 11:54:36;;;;;;;;;;;;;;;26.48;39.11;94249.38;5055349;28;7312;-63
2023/04/27 11:57:11;;;;;;;;;;;;;;;26.49;39.17;94243.34;5038453;28;7046;-63
2023/04/27 11:59:48;;;;;;;;;;;;;;;26.53;39.18;94240.28;5039042;28;7027;-63
2023/04/27 12:02:17;;;;;;;;;;;;;;;26.55;39.64;94232.25;5055083;28;7830;-63
2023/04/27 12:04:47;;;;;;;;;;;;;;;26.58;38.87;94236.69;5055203;28;7878;-63
2023/04/27 12:07:21;;;;;;;;;;;;;;;26.58;39.09;94240.22;5054703;28;8376;-63
2023/04/27 12:09:51;;;;;;;;;;;;;;;26.61;39.62;94235.66;5052888;28;8245;-63
2023/04/27 12:12:21;;;;;;;;;;;;;;;26.58;39.42;94236.69;5038276;28;7020;-63
2023/04/27 12:14:48;;;;;;;;;;;;;;;26.59;39.04;94241.72;5059413;28;9224;-64
2023/04/27 12:17:16;;;;;;;;;;;;;;;26.61;39.15;94239.19;5073098;28;7099;-63
2023/04/27 12:19:44;;;;;;;;;;;;;;;26.64;39.26;94234.63;5058107;28;7275;-64
2023/04/27 12:22:36;;;;;;;;;;;;;;;26.68;38.87;94227.56;5074153;28;9211;-63
2023/04/27 12:25:13;;;;;;;;;;;;;;;26.67;38.88;94230.81;5074762;28;7155;-63
2023/04/27 12:27:52;;;;;;;;;;;;;;;26.69;39.21;94222.75;5053118;28;7438;-64
2023/04/27 12:30:20;;;;;;;;;;;;;;;26.72;38.84;94225.25;5037897;28;9123;-63
2023/04/27 12:32:59;;;;;;;;;;;;;;;26.72;39.50;94216.22;5037987;28;7660;-64
2023/04/27 12:35:30;;;;;;;;;;;;;;;26.74;38.64;94221.97;5055663;28;7387;-63
2023/04/27 12:37:58;;;;;;;;;;;;;;;26.75;39.49;94217.97;5056232;28;7070;-64
2023/04/27 12:40:26;;;;;;;;;;;;;;;26.77;39.22;94220.94;5037977;28;7442;-64
2023/04/27 12:43:03;;;;;;;;;;;;;;;26.77;39.24;94223.72;5037580;28;9081;-63
2023/04/27 12:46:01;;;;;;;;;;;;;;;26.80;39.02;94225.41;5055079;28;8951;-64
2023/04/27 12:48:58;;;;;;;;;;;;;;;26.80;39.32;94220.63;5042572;28;7360;-63
2023/04/27 12:51:29;;;;;;;;;;;;;;;26.81;38.72;94221.41;4993984;28;7835;-63
2023/04/27 12:54:11;;;;;;;;;;;;;;;26.84;38.92;94226.59;4993540;28;7114;-63
2023/04/27 12:56:43;;;;;;;;;;;;;;;26.87;39.26;94222.06;4977407;28;7874;-63
2023/04/27 13:00:08;;;;;;;;;;;;;;;26.88;38.75;94218.75;4976962;28;7054;-63
2023/04/27 13:02:48;;;;;;;;;;;;;;;26.91;39.12;94222.50;4935620;29;9035;-64
2023/04/27 13:05:15;;;;;;;;;;;;;;;26.94;39.39;94221.47;4935769;29;8640;-63
2023/04/27 13:07:51;;;;;;;;;;;;;;;26.95;39.34;94209.13;4935654;29;9084;-64
2023/04/27 13:10:27;;;;;;;;;;;;;;;26.96;39.12;94209.88;4934887;29;7279;-64
2023/04/27 13:13:26;;;;;;;;;;;;;;;26.99;38.75;94208.84;4919727;29;8709;-63
2023/04/27 13:15:53;;;;;;;;;;;;;;;27.01;39.28;94206.31;4897615;29;7233;-64
2023/04/27 13:18:54;;;;;;;;;;;;;;;27.03;38.93;94206.53;4878849;29;6988;-63
2023/04/27 13:21:44;;;;;;;;;;;;;;;27.02;39.02;94205.78;4826881;29;9095;-63
2023/04/27 13:24:18;;;;;;;;;;;;;;;27.04;39.15;94208.75;4835679;29;7067;-64
2023/04/27 13:26:45;;;;;;;;;;;;;;;27.07;38.88;94206.97;4842290;29;7029;-64
2023/04/27 13:29:14;;;;;;;;;;;;;;;27.05;39.19;94204.72;4878767;29;7217;-63
2023/04/27 13:32:01;;;;;;;;;;;;;;;27.06;39.00;94202.69;4878551;29;9141;-64
2023/04/27 13:34:38;;;;;;;;;;;;;;;27.01;38.64;94196.03;4897084;29;9192;-63
2023/04/27 13:37:17;;;;;;;;;;;;;;;27.07;39.06;94199.44;4900569;29;7033;-64
2023/04/27 13:39:45;;;;;;;;;;;;;;;27.07;39.09;94204.94;4900379;29;6906;-63